sensor_id;sensor_type;location;lat;lon;timestamp;P1;durP1;ratioP1;P2;durP2;ratioP2
77872;SDS011;67068;52.116;4.440;2024-02-21T00:02:10;0.97;;;0.30;;
77872;SDS011;67068;52.116;4.440;2024-02-21T00:04:35;1.67;;;0.40;;
77872;SDS011;67068;52.116;4.440;2024-02-21T00:07:01;5.75;;;1.17;;
77872;SDS011;67068;52.116;4.440;2024-02-21T00:09:27;7.70;;;1.60;;
77872;SDS011;67068;52.116;4.440;2024-02-21T00:11:52;8.00;;;1.15;;
77872;SDS011;67068;52.116;4.440;2024-02-21T00:14:18;4.63;;;0.98;;
77872;SDS011;67068;52.116;4.440;2024-02-21T00:16:43;9.80;;;1.37;;
77872;SDS011;67068;52.116;4.440;2024-02-21T00:19:08;3.50;;;0.63;;
77872;SDS011;67068;52.116;4.440;2024-02-21T00:21:33;6.20;;;1.50;;
77872;SDS011;67068;52.116;4.440;2024-02-21T00:23:58;6.43;;;0.67;;
77872;SDS011;67068;52.116;4.440;2024-02-21T00:26:24;3.30;;;0.43;;
77872;SDS011;67068;52.116;4.440;2024-02-21T00:28:50;8.30;;;1.38;;
77872;SDS011;67068;52.116;4.440;2024-02-21T00:31:16;8.40;;;1.07;;
77872;SDS011;67068;52.116;4.440;2024-02-21T00:33:41;0.00;;;0.00;;
77872;SDS011;67068;52.116;4.440;2024-02-21T00:36:06;6.47;;;1.17;;
77872;SDS011;67068;52.116;4.440;2024-02-21T00:38:31;2.47;;;0.30;;
77872;SDS011;67068;52.116;4.440;2024-02-21T00:40:57;6.47;;;1.13;;
77872;SDS011;67068;52.116;4.440;2024-02-21T00:43:22;10.87;;;1.27;;
77872;SDS011;67068;52.116;4.440;2024-02-21T00:45:48;9.20;;;1.08;;
77872;SDS011;67068;52.116;4.440;2024-02-21T00:48:14;7.75;;;2.10;;
77872;SDS011;67068;52.116;4.440;2024-02-21T00:50:39;6.17;;;0.90;;
77872;SDS011;67068;52.116;4.440;2024-02-21T00:53:04;7.20;;;1.52;;
77872;SDS011;67068;52.116;4.440;2024-02-21T00:55:30;8.47;;;1.67;;
77872;SDS011;67068;52.116;4.440;2024-02-21T00:57:55;4.80;;;0.83;;
77872;SDS011;67068;52.116;4.440;2024-02-21T01:00:20;11.48;;;1.88;;
77872;SDS011;67068;52.116;4.440;2024-02-21T01:02:46;6.57;;;1.20;;
77872;SDS011;67068;52.116;4.440;2024-02-21T01:05:11;10.73;;;1.47;;
77872;SDS011;67068;52.116;4.440;2024-02-21T01:07:36;7.03;;;1.10;;
77872;SDS011;67068;52.116;4.440;2024-02-21T01:10:01;7.43;;;1.00;;
77872;SDS011;67068;52.116;4.440;2024-02-21T01:12:27;10.60;;;2.07;;
77872;SDS011;67068;52.116;4.440;2024-02-21T01:14:52;7.53;;;1.50;;
77872;SDS011;67068;52.116;4.440;2024-02-21T01:17:17;10.13;;;1.57;;
77872;SDS011;67068;52.116;4.440;2024-02-21T01:19:42;5.83;;;0.77;;
77872;SDS011;67068;52.116;4.440;2024-02-21T01:22:08;3.70;;;0.87;;
77872;SDS011;67068;52.116;4.440;2024-02-21T01:24:33;4.72;;;0.95;;
77872;SDS011;67068;52.116;4.440;2024-02-21T01:26:58;2.80;;;1.10;;
77872;SDS011;67068;52.116;4.440;2024-02-21T01:29:24;10.82;;;1.45;;
77872;SDS011;67068;52.116;4.440;2024-02-21T01:31:49;8.90;;;1.33;;
77872;SDS011;67068;52.116;4.440;2024-02-21T01:34:14;10.07;;;1.73;;
77872;SDS011;67068;52.116;4.440;2024-02-21T01:36:39;1.87;;;0.43;;
77872;SDS011;67068;52.116;4.440;2024-02-21T01:39:06;13.20;;;1.60;;
77872;SDS011;67068;52.116;4.440;2024-02-21T01:41:31;8.03;;;1.40;;
77872;SDS011;67068;52.116;4.440;2024-02-21T01:43:57;3.33;;;0.90;;
77872;SDS011;67068;52.116;4.440;2024-02-21T01:46:22;9.57;;;1.80;;
77872;SDS011;67068;52.116;4.440;2024-02-21T01:48:48;9.48;;;1.58;;
77872;SDS011;67068;52.116;4.440;2024-02-21T01:51:13;6.75;;;0.68;;
77872;SDS011;67068;52.116;4.440;2024-02-21T01:53:41;3.80;;;1.00;;
77872;SDS011;67068;52.116;4.440;2024-02-21T01:56:07;10.65;;;1.77;;
77872;SDS011;67068;52.116;4.440;2024-02-21T01:58:33;9.27;;;1.20;;
77872;SDS011;67068;52.116;4.440;2024-02-21T02:01:01;6.93;;;0.80;;
77872;SDS011;67068;52.116;4.440;2024-02-21T02:03:27;2.90;;;0.77;;
77872;SDS011;67068;52.116;4.440;2024-02-21T02:05:53;5.63;;;0.90;;
77872;SDS011;67068;52.116;4.440;2024-02-21T02:08:19;4.30;;;0.93;;
77872;SDS011;67068;52.116;4.440;2024-02-21T02:10:45;4.45;;;0.85;;
77872;SDS011;67068;52.116;4.440;2024-02-21T02:13:10;10.30;;;1.33;;
77872;SDS011;67068;52.116;4.440;2024-02-21T02:18:04;1.45;;;0.13;;
77872;SDS011;67068;52.116;4.440;2024-02-21T02:20:29;3.78;;;0.85;;
77872;SDS011;67068;52.116;4.440;2024-02-21T02:22:55;10.27;;;1.43;;
77872;SDS011;67068;52.116;4.440;2024-02-21T02:25:20;10.98;;;1.58;;
77872;SDS011;67068;52.116;4.440;2024-02-21T02:27:46;3.78;;;1.15;;
77872;SDS011;67068;52.116;4.440;2024-02-21T02:30:11;5.75;;;1.08;;
77872;SDS011;67068;52.116;4.440;2024-02-21T02:32:36;1.77;;;0.68;;
77872;SDS011;67068;52.116;4.440;2024-02-21T02:35:02;2.23;;;0.60;;
77872;SDS011;67068;52.116;4.440;2024-02-21T02:37:27;8.32;;;2.03;;
77872;SDS011;67068;52.116;4.440;2024-02-21T02:39:52;5.53;;;1.07;;
77872;SDS011;67068;52.116;4.440;2024-02-21T02:42:17;13.80;;;1.47;;
77872;SDS011;67068;52.116;4.440;2024-02-21T02:44:43;8.47;;;1.73;;
77872;SDS011;67068;52.116;4.440;2024-02-21T02:47:08;12.20;;;1.43;;
77872;SDS011;67068;52.116;4.440;2024-02-21T02:49:33;7.38;;;0.77;;
77872;SDS011;67068;52.116;4.440;2024-02-21T02:51:59;6.70;;;1.33;;
77872;SDS011;67068;52.116;4.440;2024-02-21T02:54:24;7.37;;;1.17;;
77872;SDS011;67068;52.116;4.440;2024-02-21T02:56:49;2.97;;;0.73;;
77872;SDS011;67068;52.116;4.440;2024-02-21T02:59:15;3.42;;;0.88;;
77872;SDS011;67068;52.116;4.440;2024-02-21T03:01:40;9.13;;;1.27;;
77872;SDS011;67068;52.116;4.440;2024-02-21T03:04:05;9.50;;;1.83;;
77872;SDS011;67068;52.116;4.440;2024-02-21T03:06:30;7.40;;;1.60;;
77872;SDS011;67068;52.116;4.440;2024-02-21T03:08:56;7.53;;;1.77;;
77872;SDS011;67068;52.116;4.440;2024-02-21T03:11:21;4.97;;;0.75;;
77872;SDS011;67068;52.116;4.440;2024-02-21T03:13:53;7.72;;;1.35;;
77872;SDS011;67068;52.116;4.440;2024-02-21T03:16:19;4.57;;;1.17;;
77872;SDS011;67068;52.116;4.440;2024-02-21T03:18:44;5.93;;;0.97;;
77872;SDS011;67068;52.116;4.440;2024-02-21T03:21:09;9.37;;;2.00;;
77872;SDS011;67068;52.116;4.440;2024-02-21T03:23:34;10.93;;;2.23;;
77872;SDS011;67068;52.116;4.440;2024-02-21T03:25:59;9.23;;;1.87;;
77872;SDS011;67068;52.116;4.440;2024-02-21T03:28:25;9.57;;;1.80;;
77872;SDS011;67068;52.116;4.440;2024-02-21T03:30:50;7.53;;;1.70;;
77872;SDS011;67068;52.116;4.440;2024-02-21T03:33:15;7.80;;;1.47;;
77872;SDS011;67068;52.116;4.440;2024-02-21T03:35:40;8.03;;;1.63;;
77872;SDS011;67068;52.116;4.440;2024-02-21T03:38:06;5.43;;;1.23;;
77872;SDS011;67068;52.116;4.440;2024-02-21T03:40:31;7.03;;;1.27;;
77872;SDS011;67068;52.116;4.440;2024-02-21T03:42:56;9.85;;;1.88;;
77872;SDS011;67068;52.116;4.440;2024-02-21T03:45:21;4.50;;;1.43;;
77872;SDS011;67068;52.116;4.440;2024-02-21T03:47:47;8.07;;;1.97;;
77872;SDS011;67068;52.116;4.440;2024-02-21T03:50:12;4.17;;;1.17;;
77872;SDS011;67068;52.116;4.440;2024-02-21T03:52:37;8.33;;;1.80;;
77872;SDS011;67068;52.116;4.440;2024-02-21T03:55:02;8.07;;;1.77;;
77872;SDS011;67068;52.116;4.440;2024-02-21T03:57:28;8.68;;;2.22;;
77872;SDS011;67068;52.116;4.440;2024-02-21T03:59:53;3.87;;;1.17;;
77872;SDS011;67068;52.116;4.440;2024-02-21T04:02:19;4.10;;;1.00;;
77872;SDS011;67068;52.116;4.440;2024-02-21T04:04:44;7.70;;;1.30;;
77872;SDS011;67068;52.116;4.440;2024-02-21T04:09:38;11.02;;;1.80;;
77872;SDS011;67068;52.116;4.440;2024-02-21T04:12:03;9.73;;;2.70;;
77872;SDS011;67068;52.116;4.440;2024-02-21T04:14:28;3.90;;;0.98;;
77872;SDS011;67068;52.116;4.440;2024-02-21T04:16:53;8.30;;;1.20;;
77872;SDS011;67068;52.116;4.440;2024-02-21T04:19:19;7.10;;;1.67;;
77872;SDS011;67068;52.116;4.440;2024-02-21T04:21:44;8.47;;;1.60;;
77872;SDS011;67068;52.116;4.440;2024-02-21T04:24:09;5.90;;;1.73;;
77872;SDS011;67068;52.116;4.440;2024-02-21T04:26:35;6.45;;;1.67;;
77872;SDS011;67068;52.116;4.440;2024-02-21T04:29:00;5.90;;;1.67;;
77872;SDS011;67068;52.116;4.440;2024-02-21T04:31:25;4.37;;;1.20;;
77872;SDS011;67068;52.116;4.440;2024-02-21T04:33:51;8.00;;;1.80;;
77872;SDS011;67068;52.116;4.440;2024-02-21T04:36:16;7.50;;;1.60;;
77872;SDS011;67068;52.116;4.440;2024-02-21T04:38:41;8.00;;;1.97;;
77872;SDS011;67068;52.116;4.440;2024-02-21T04:41:06;5.90;;;1.40;;
77872;SDS011;67068;52.116;4.440;2024-02-21T04:43:31;5.27;;;1.73;;
77872;SDS011;67068;52.116;4.440;2024-02-21T04:45:57;9.13;;;1.85;;
77872;SDS011;67068;52.116;4.440;2024-02-21T04:48:22;5.50;;;0.97;;
77872;SDS011;67068;52.116;4.440;2024-02-21T04:50:47;4.90;;;0.87;;
77872;SDS011;67068;52.116;4.440;2024-02-21T04:53:13;10.50;;;2.00;;
77872;SDS011;67068;52.116;4.440;2024-02-21T04:55:38;11.00;;;2.20;;
77872;SDS011;67068;52.116;4.440;2024-02-21T04:58:05;10.63;;;2.13;;
77872;SDS011;67068;52.116;4.440;2024-02-21T05:00:30;6.27;;;1.00;;
77872;SDS011;67068;52.116;4.440;2024-02-21T05:02:55;9.90;;;2.87;;
77872;SDS011;67068;52.116;4.440;2024-02-21T05:05:20;5.23;;;1.10;;
77872;SDS011;67068;52.116;4.440;2024-02-21T05:07:46;10.73;;;2.47;;
77872;SDS011;67068;52.116;4.440;2024-02-21T05:10:11;7.32;;;1.35;;
77872;SDS011;67068;52.116;4.440;2024-02-21T05:12:36;4.37;;;1.40;;
77872;SDS011;67068;52.116;4.440;2024-02-21T05:15:02;4.73;;;1.47;;
77872;SDS011;67068;52.116;4.440;2024-02-21T05:17:28;6.28;;;2.05;;
77872;SDS011;67068;52.116;4.440;2024-02-21T05:19:53;6.77;;;1.90;;
77872;SDS011;67068;52.116;4.440;2024-02-21T05:22:18;10.00;;;2.60;;
77872;SDS011;67068;52.116;4.440;2024-02-21T05:24:43;9.40;;;2.80;;
77872;SDS011;67068;52.116;4.440;2024-02-21T05:27:09;10.87;;;2.20;;
77872;SDS011;67068;52.116;4.440;2024-02-21T05:29:34;6.57;;;2.27;;
77872;SDS011;67068;52.116;4.440;2024-02-21T05:32:00;7.63;;;2.08;;
77872;SDS011;67068;52.116;4.440;2024-02-21T05:34:25;6.70;;;2.23;;
77872;SDS011;67068;52.116;4.440;2024-02-21T05:36:51;11.10;;;2.38;;
77872;SDS011;67068;52.116;4.440;2024-02-21T05:39:16;13.00;;;2.80;;
77872;SDS011;67068;52.116;4.440;2024-02-21T05:41:42;7.60;;;2.83;;
77872;SDS011;67068;52.116;4.440;2024-02-21T05:44:07;12.77;;;3.33;;
77872;SDS011;67068;52.116;4.440;2024-02-21T05:46:32;8.57;;;2.20;;
77872;SDS011;67068;52.116;4.440;2024-02-21T05:48:58;9.40;;;2.67;;
77872;SDS011;67068;52.116;4.440;2024-02-21T05:51:23;8.23;;;2.30;;
77872;SDS011;67068;52.116;4.440;2024-02-21T05:53:48;6.63;;;1.70;;
77872;SDS011;67068;52.116;4.440;2024-02-21T05:56:14;8.77;;;2.58;;
77872;SDS011;67068;52.116;4.440;2024-02-21T05:58:39;8.85;;;2.45;;
77872;SDS011;67068;52.116;4.440;2024-02-21T06:01:04;4.18;;;1.50;;
77872;SDS011;67068;52.116;4.440;2024-02-21T06:03:31;5.57;;;1.80;;
77872;SDS011;67068;52.116;4.440;2024-02-21T06:05:57;9.82;;;2.65;;
77872;SDS011;67068;52.116;4.440;2024-02-21T06:08:22;11.15;;;2.17;;
77872;SDS011;67068;52.116;4.440;2024-02-21T06:10:48;8.20;;;2.57;;
77872;SDS011;67068;52.116;4.440;2024-02-21T06:13:13;7.65;;;2.78;;
77872;SDS011;67068;52.116;4.440;2024-02-21T06:15:38;9.18;;;2.80;;
77872;SDS011;67068;52.116;4.440;2024-02-21T06:18:04;7.87;;;2.10;;
77872;SDS011;67068;52.116;4.440;2024-02-21T06:20:29;9.98;;;2.83;;
77872;SDS011;67068;52.116;4.440;2024-02-21T06:22:54;6.63;;;2.60;;
77872;SDS011;67068;52.116;4.440;2024-02-21T06:25:19;8.83;;;2.90;;
77872;SDS011;67068;52.116;4.440;2024-02-21T06:27:45;7.70;;;2.20;;
77872;SDS011;67068;52.116;4.440;2024-02-21T06:30:10;6.03;;;1.60;;
77872;SDS011;67068;52.116;4.440;2024-02-21T06:32:35;6.60;;;2.30;;
77872;SDS011;67068;52.116;4.440;2024-02-21T06:35:01;8.30;;;3.40;;
77872;SDS011;67068;52.116;4.440;2024-02-21T06:37:27;11.23;;;3.45;;
77872;SDS011;67068;52.116;4.440;2024-02-21T06:39:52;7.27;;;2.83;;
77872;SDS011;67068;52.116;4.440;2024-02-21T06:42:17;11.20;;;3.57;;
77872;SDS011;67068;52.116;4.440;2024-02-21T06:44:43;11.27;;;3.22;;
77872;SDS011;67068;52.116;4.440;2024-02-21T06:47:09;11.25;;;3.67;;
77872;SDS011;67068;52.116;4.440;2024-02-21T06:49:34;9.27;;;3.23;;
77872;SDS011;67068;52.116;4.440;2024-02-21T06:51:59;12.17;;;3.97;;
77872;SDS011;67068;52.116;4.440;2024-02-21T06:54:24;10.30;;;3.60;;
77872;SDS011;67068;52.116;4.440;2024-02-21T06:56:50;11.10;;;4.13;;
77872;SDS011;67068;52.116;4.440;2024-02-21T06:59:15;11.57;;;3.87;;
77872;SDS011;67068;52.116;4.440;2024-02-21T07:01:44;13.15;;;3.67;;
77872;SDS011;67068;52.116;4.440;2024-02-21T07:04:09;12.15;;;4.78;;
77872;SDS011;67068;52.116;4.440;2024-02-21T07:06:35;10.10;;;4.23;;
77872;SDS011;67068;52.116;4.440;2024-02-21T07:09:00;9.30;;;3.33;;
77872;SDS011;67068;52.116;4.440;2024-02-21T07:11:25;11.13;;;3.70;;
77872;SDS011;67068;52.116;4.440;2024-02-21T07:13:50;13.43;;;4.30;;
77872;SDS011;67068;52.116;4.440;2024-02-21T07:16:16;9.00;;;3.53;;
77872;SDS011;67068;52.116;4.440;2024-02-21T07:18:41;14.40;;;4.57;;
77872;SDS011;67068;52.116;4.440;2024-02-21T07:21:06;10.05;;;3.55;;
77872;SDS011;67068;52.116;4.440;2024-02-21T07:23:32;11.77;;;4.63;;
77872;SDS011;67068;52.116;4.440;2024-02-21T07:25:57;13.33;;;3.73;;
77872;SDS011;67068;52.116;4.440;2024-02-21T07:28:22;10.43;;;3.80;;
77872;SDS011;67068;52.116;4.440;2024-02-21T07:30:48;14.77;;;3.77;;
77872;SDS011;67068;52.116;4.440;2024-02-21T07:33:13;12.32;;;3.63;;
77872;SDS011;67068;52.116;4.440;2024-02-21T07:35:39;7.18;;;2.92;;
77872;SDS011;67068;52.116;4.440;2024-02-21T07:38:06;12.95;;;4.18;;
77872;SDS011;67068;52.116;4.440;2024-02-21T07:40:32;11.95;;;4.35;;
77872;SDS011;67068;52.116;4.440;2024-02-21T07:42:57;8.15;;;3.17;;
77872;SDS011;67068;52.116;4.440;2024-02-21T07:45:22;8.50;;;3.00;;
77872;SDS011;67068;52.116;4.440;2024-02-21T07:47:49;11.75;;;3.85;;
77872;SDS011;67068;52.116;4.440;2024-02-21T07:50:14;14.18;;;4.40;;
77872;SDS011;67068;52.116;4.440;2024-02-21T07:52:39;11.27;;;4.27;;
77872;SDS011;67068;52.116;4.440;2024-02-21T07:55:05;11.70;;;4.57;;
77872;SDS011;67068;52.116;4.440;2024-02-21T07:57:30;16.23;;;4.78;;
77872;SDS011;67068;52.116;4.440;2024-02-21T07:59:55;14.43;;;5.30;;
77872;SDS011;67068;52.116;4.440;2024-02-21T08:02:20;11.33;;;4.10;;
77872;SDS011;67068;52.116;4.440;2024-02-21T08:04:46;10.83;;;4.07;;
77872;SDS011;67068;52.116;4.440;2024-02-21T08:07:11;12.03;;;4.60;;
77872;SDS011;67068;52.116;4.440;2024-02-21T08:09:36;16.30;;;4.80;;
77872;SDS011;67068;52.116;4.440;2024-02-21T08:12:04;11.10;;;3.85;;
77872;SDS011;67068;52.116;4.440;2024-02-21T08:14:30;15.02;;;4.05;;
77872;SDS011;67068;52.116;4.440;2024-02-21T08:16:55;11.27;;;4.13;;
77872;SDS011;67068;52.116;4.440;2024-02-21T08:19:21;10.50;;;4.15;;
77872;SDS011;67068;52.116;4.440;2024-02-21T08:21:46;9.77;;;4.53;;
77872;SDS011;67068;52.116;4.440;2024-02-21T08:24:12;9.90;;;3.50;;
77872;SDS011;67068;52.116;4.440;2024-02-21T08:26:39;27.88;;;4.82;;
77872;SDS011;67068;52.116;4.440;2024-02-21T08:29:05;9.52;;;3.72;;
77872;SDS011;67068;52.116;4.440;2024-02-21T08:31:30;10.82;;;4.10;;
77872;SDS011;67068;52.116;4.440;2024-02-21T08:38:55;14.45;;;5.40;;
77872;SDS011;67068;52.116;4.440;2024-02-21T08:41:20;13.75;;;6.18;;
77872;SDS011;67068;52.116;4.440;2024-02-21T08:43:48;13.43;;;5.43;;
77872;SDS011;67068;52.116;4.440;2024-02-21T08:46:14;11.85;;;4.55;;
77872;SDS011;67068;52.116;4.440;2024-02-21T08:48:39;11.90;;;4.70;;
77872;SDS011;67068;52.116;4.440;2024-02-21T08:51:04;16.17;;;6.07;;
77872;SDS011;67068;52.116;4.440;2024-02-21T08:53:30;14.85;;;5.57;;
77872;SDS011;67068;52.116;4.440;2024-02-21T08:55:56;14.82;;;7.55;;
77872;SDS011;67068;52.116;4.440;2024-02-21T08:58:21;8.63;;;3.43;;
77872;SDS011;67068;52.116;4.440;2024-02-21T09:00:48;13.05;;;5.28;;
77872;SDS011;67068;52.116;4.440;2024-02-21T09:03:13;13.63;;;5.60;;
77872;SDS011;67068;52.116;4.440;2024-02-21T09:05:39;13.23;;;4.43;;
77872;SDS011;67068;52.116;4.440;2024-02-21T09:08:04;9.13;;;4.63;;
77872;SDS011;67068;52.116;4.440;2024-02-21T09:10:29;14.15;;;4.13;;
77872;SDS011;67068;52.116;4.440;2024-02-21T09:12:55;11.45;;;4.82;;
77872;SDS011;67068;52.116;4.440;2024-02-21T09:15:21;12.55;;;5.32;;
77872;SDS011;67068;52.116;4.440;2024-02-21T09:17:46;13.00;;;5.15;;
77872;SDS011;67068;52.116;4.440;2024-02-21T09:20:11;11.77;;;4.20;;
77872;SDS011;67068;52.116;4.440;2024-02-21T09:22:37;13.73;;;5.03;;
77872;SDS011;67068;52.116;4.440;2024-02-21T09:25:04;7.32;;;2.60;;
77872;SDS011;67068;52.116;4.440;2024-02-21T09:27:30;12.38;;;4.72;;
77872;SDS011;67068;52.116;4.440;2024-02-21T09:29:55;12.40;;;4.87;;
77872;SDS011;67068;52.116;4.440;2024-02-21T09:32:20;12.55;;;4.82;;
77872;SDS011;67068;52.116;4.440;2024-02-21T09:34:46;11.98;;;4.90;;
77872;SDS011;67068;52.116;4.440;2024-02-21T09:37:11;10.23;;;4.17;;
77872;SDS011;67068;52.116;4.440;2024-02-21T09:39:37;14.17;;;5.43;;
77872;SDS011;67068;52.116;4.440;2024-02-21T09:42:06;8.70;;;2.97;;
77872;SDS011;67068;52.116;4.440;2024-02-21T09:44:38;11.73;;;4.72;;
77872;SDS011;67068;52.116;4.440;2024-02-21T09:47:12;12.68;;;3.72;;
77872;SDS011;67068;52.116;4.440;2024-02-21T09:49:42;11.73;;;5.30;;
77872;SDS011;67068;52.116;4.440;2024-02-21T09:52:08;14.13;;;5.35;;
77872;SDS011;67068;52.116;4.440;2024-02-21T09:54:36;10.50;;;4.60;;
77872;SDS011;67068;52.116;4.440;2024-02-21T09:57:02;12.97;;;4.67;;
77872;SDS011;67068;52.116;4.440;2024-02-21T09:59:28;14.20;;;5.70;;
77872;SDS011;67068;52.116;4.440;2024-02-21T10:01:54;12.23;;;4.20;;
77872;SDS011;67068;52.116;4.440;2024-02-21T10:04:20;13.70;;;6.45;;
77872;SDS011;67068;52.116;4.440;2024-02-21T10:06:45;11.98;;;5.13;;
77872;SDS011;67068;52.116;4.440;2024-02-21T10:09:27;11.20;;;3.60;;
77872;SDS011;67068;52.116;4.440;2024-02-21T10:11:53;12.68;;;5.28;;
77872;SDS011;67068;52.116;4.440;2024-02-21T10:14:18;14.93;;;6.60;;
77872;SDS011;67068;52.116;4.440;2024-02-21T10:16:43;12.60;;;4.63;;
77872;SDS011;67068;52.116;4.440;2024-02-21T10:19:16;13.02;;;5.40;;
77872;SDS011;67068;52.116;4.440;2024-02-21T10:21:41;13.20;;;4.80;;
77872;SDS011;67068;52.116;4.440;2024-02-21T10:24:07;12.37;;;5.57;;
77872;SDS011;67068;52.116;4.440;2024-02-21T10:26:32;14.27;;;4.60;;
77872;SDS011;67068;52.116;4.440;2024-02-21T10:28:57;13.47;;;4.93;;
77872;SDS011;67068;52.116;4.440;2024-02-21T10:31:26;14.57;;;6.37;;
77872;SDS011;67068;52.116;4.440;2024-02-21T10:33:55;13.70;;;5.63;;
77872;SDS011;67068;52.116;4.440;2024-02-21T10:36:21;8.82;;;3.33;;
77872;SDS011;67068;52.116;4.440;2024-02-21T10:38:46;8.68;;;3.83;;
77872;SDS011;67068;52.116;4.440;2024-02-21T10:41:13;12.10;;;5.67;;
77872;SDS011;67068;52.116;4.440;2024-02-21T10:43:40;10.77;;;3.90;;
77872;SDS011;67068;52.116;4.440;2024-02-21T10:46:06;9.18;;;4.18;;
77872;SDS011;67068;52.116;4.440;2024-02-21T10:48:33;11.85;;;3.85;;
77872;SDS011;67068;52.116;4.440;2024-02-21T10:51:03;13.93;;;4.95;;
77872;SDS011;67068;52.116;4.440;2024-02-21T10:56:33;11.85;;;4.88;;
77872;SDS011;67068;52.116;4.440;2024-02-21T10:59:02;11.18;;;4.90;;
77872;SDS011;67068;52.116;4.440;2024-02-21T11:01:28;14.73;;;5.13;;
77872;SDS011;67068;52.116;4.440;2024-02-21T11:03:55;11.15;;;5.07;;
77872;SDS011;67068;52.116;4.440;2024-02-21T11:06:21;11.10;;;5.65;;
77872;SDS011;67068;52.116;4.440;2024-02-21T11:08:47;11.20;;;4.97;;
77872;SDS011;67068;52.116;4.440;2024-02-21T11:11:13;13.10;;;5.47;;
77872;SDS011;67068;52.116;4.440;2024-02-21T11:13:43;14.02;;;6.75;;
77872;SDS011;67068;52.116;4.440;2024-02-21T11:16:09;10.80;;;5.13;;
77872;SDS011;67068;52.116;4.440;2024-02-21T11:18:36;11.95;;;5.57;;
77872;SDS011;67068;52.116;4.440;2024-02-21T11:21:01;9.57;;;4.45;;
77872;SDS011;67068;52.116;4.440;2024-02-21T11:23:28;12.40;;;5.60;;
77872;SDS011;67068;52.116;4.440;2024-02-21T11:26:03;10.47;;;4.37;;
77872;SDS011;67068;52.116;4.440;2024-02-21T11:28:28;10.65;;;4.10;;
77872;SDS011;67068;52.116;4.440;2024-02-21T11:30:53;12.27;;;5.47;;
77872;SDS011;67068;52.116;4.440;2024-02-21T11:33:29;10.93;;;4.57;;
77872;SDS011;67068;52.116;4.440;2024-02-21T11:35:54;12.83;;;5.50;;
77872;SDS011;67068;52.116;4.440;2024-02-21T11:38:19;12.27;;;5.80;;
77872;SDS011;67068;52.116;4.440;2024-02-21T11:40:47;10.57;;;5.35;;
77872;SDS011;67068;52.116;4.440;2024-02-21T11:43:13;12.03;;;4.53;;
77872;SDS011;67068;52.116;4.440;2024-02-21T11:45:38;12.27;;;5.30;;
77872;SDS011;67068;52.116;4.440;2024-02-21T11:48:05;9.90;;;3.90;;
77872;SDS011;67068;52.116;4.440;2024-02-21T11:50:31;10.30;;;4.75;;
77872;SDS011;67068;52.116;4.440;2024-02-21T11:52:56;12.52;;;5.22;;
77872;SDS011;67068;52.116;4.440;2024-02-21T11:55:22;9.60;;;4.03;;
77872;SDS011;67068;52.116;4.440;2024-02-21T11:57:47;10.68;;;5.20;;
77872;SDS011;67068;52.116;4.440;2024-02-21T12:00:22;11.52;;;3.75;;
77872;SDS011;67068;52.116;4.440;2024-02-21T12:02:49;13.25;;;6.10;;
77872;SDS011;67068;52.116;4.440;2024-02-21T12:05:15;12.38;;;4.30;;
77872;SDS011;67068;52.116;4.440;2024-02-21T12:07:40;10.85;;;4.53;;
77872;SDS011;67068;52.116;4.440;2024-02-21T12:10:15;12.52;;;5.60;;
77872;SDS011;67068;52.116;4.440;2024-02-21T12:12:40;9.25;;;3.35;;
77872;SDS011;67068;52.116;4.440;2024-02-21T12:15:06;9.68;;;2.85;;
77872;SDS011;67068;52.116;4.440;2024-02-21T12:17:34;12.00;;;4.28;;
77872;SDS011;67068;52.116;4.440;2024-02-21T12:20:00;8.40;;;3.90;;
77872;SDS011;67068;52.116;4.440;2024-02-21T12:22:25;9.80;;;3.13;;
77872;SDS011;67068;52.116;4.440;2024-02-21T12:24:51;12.45;;;4.25;;
77872;SDS011;67068;52.116;4.440;2024-02-21T12:27:16;11.97;;;4.57;;
77872;SDS011;67068;52.116;4.440;2024-02-21T12:29:41;7.43;;;2.70;;
77872;SDS011;67068;52.116;4.440;2024-02-21T12:32:07;10.87;;;3.63;;
77872;SDS011;67068;52.116;4.440;2024-02-21T12:34:32;9.82;;;4.15;;
77872;SDS011;67068;52.116;4.440;2024-02-21T12:36:58;8.20;;;3.88;;
77872;SDS011;67068;52.116;4.440;2024-02-21T12:39:23;6.05;;;2.28;;
77872;SDS011;67068;52.116;4.440;2024-02-21T12:41:49;11.77;;;3.87;;
77872;SDS011;67068;52.116;4.440;2024-02-21T12:44:14;10.20;;;4.07;;
77872;SDS011;67068;52.116;4.440;2024-02-21T12:46:41;11.77;;;3.75;;
77872;SDS011;67068;52.116;4.440;2024-02-21T12:49:06;10.43;;;3.70;;
77872;SDS011;67068;52.116;4.440;2024-02-21T12:51:34;8.25;;;3.25;;
77872;SDS011;67068;52.116;4.440;2024-02-21T12:54:00;9.40;;;3.75;;
77872;SDS011;67068;52.116;4.440;2024-02-21T12:56:25;8.63;;;3.40;;
77872;SDS011;67068;52.116;4.440;2024-02-21T12:58:54;10.38;;;3.60;;
77872;SDS011;67068;52.116;4.440;2024-02-21T13:01:20;9.80;;;3.70;;
77872;SDS011;67068;52.116;4.440;2024-02-21T13:03:46;9.27;;;3.50;;
77872;SDS011;67068;52.116;4.440;2024-02-21T13:06:11;13.10;;;5.05;;
77872;SDS011;67068;52.116;4.440;2024-02-21T13:08:37;8.77;;;3.60;;
77872;SDS011;67068;52.116;4.440;2024-02-21T13:11:03;9.10;;;3.30;;
77872;SDS011;67068;52.116;4.440;2024-02-21T13:13:28;7.32;;;3.03;;
77872;SDS011;67068;52.116;4.440;2024-02-21T13:15:57;7.80;;;3.00;;
77872;SDS011;67068;52.116;4.440;2024-02-21T13:18:22;11.45;;;4.13;;
77872;SDS011;67068;52.116;4.440;2024-02-21T13:20:47;8.80;;;3.33;;
77872;SDS011;67068;52.116;4.440;2024-02-21T13:23:12;9.17;;;4.27;;
77872;SDS011;67068;52.116;4.440;2024-02-21T13:25:38;7.87;;;3.10;;
77872;SDS011;67068;52.116;4.440;2024-02-21T13:28:03;8.20;;;2.70;;
77872;SDS011;67068;52.116;4.440;2024-02-21T13:30:28;7.32;;;2.58;;
77872;SDS011;67068;52.116;4.440;2024-02-21T13:32:54;8.73;;;3.58;;
77872;SDS011;67068;52.116;4.440;2024-02-21T13:35:22;11.48;;;5.05;;
77872;SDS011;67068;52.116;4.440;2024-02-21T13:37:47;12.93;;;5.93;;
77872;SDS011;67068;52.116;4.440;2024-02-21T13:40:12;13.07;;;5.33;;
77872;SDS011;67068;52.116;4.440;2024-02-21T13:42:38;11.35;;;5.00;;
77872;SDS011;67068;52.116;4.440;2024-02-21T13:45:04;13.18;;;5.90;;
77872;SDS011;67068;52.116;4.440;2024-02-21T13:47:33;12.13;;;5.50;;
77872;SDS011;67068;52.116;4.440;2024-02-21T13:49:59;11.57;;;5.55;;
77872;SDS011;67068;52.116;4.440;2024-02-21T13:52:24;11.37;;;6.57;;
77872;SDS011;67068;52.116;4.440;2024-02-21T13:54:51;11.82;;;6.43;;
77872;SDS011;67068;52.116;4.440;2024-02-21T13:57:16;12.52;;;6.50;;
77872;SDS011;67068;52.116;4.440;2024-02-21T13:59:42;11.53;;;4.43;;
77872;SDS011;67068;52.116;4.440;2024-02-21T14:02:07;12.88;;;6.28;;
77872;SDS011;67068;52.116;4.440;2024-02-21T14:04:33;10.37;;;4.77;;
77872;SDS011;67068;52.116;4.440;2024-02-21T14:06:58;10.10;;;4.88;;
77872;SDS011;67068;52.116;4.440;2024-02-21T14:09:23;11.87;;;4.90;;
77872;SDS011;67068;52.116;4.440;2024-02-21T14:11:48;8.70;;;3.90;;
77872;SDS011;67068;52.116;4.440;2024-02-21T14:14:14;10.10;;;4.07;;
77872;SDS011;67068;52.116;4.440;2024-02-21T14:16:40;11.93;;;4.05;;
77872;SDS011;67068;52.116;4.440;2024-02-21T14:19:05;12.07;;;3.97;;
77872;SDS011;67068;52.116;4.440;2024-02-21T14:21:38;11.73;;;6.00;;
77872;SDS011;67068;52.116;4.440;2024-02-21T14:24:04;8.65;;;4.10;;
77872;SDS011;67068;52.116;4.440;2024-02-21T14:26:29;11.13;;;5.63;;
77872;SDS011;67068;52.116;4.440;2024-02-21T14:28:56;9.57;;;3.75;;
77872;SDS011;67068;52.116;4.440;2024-02-21T14:31:21;11.15;;;4.35;;
77872;SDS011;67068;52.116;4.440;2024-02-21T14:33:47;11.23;;;3.70;;
77872;SDS011;67068;52.116;4.440;2024-02-21T14:36:12;12.17;;;4.10;;
77872;SDS011;67068;52.116;4.440;2024-02-21T14:38:37;9.30;;;3.50;;
77872;SDS011;67068;52.116;4.440;2024-02-21T14:41:02;10.07;;;5.13;;
77872;SDS011;67068;52.116;4.440;2024-02-21T14:43:28;9.00;;;3.53;;
77872;SDS011;67068;52.116;4.440;2024-02-21T14:45:53;11.32;;;4.68;;